createdAt,value
2022-12-24T00:02:02.165Z,14.03
2022-12-24T00:04:35.255Z,13.87
2022-12-24T00:07:05.205Z,15.27
2022-12-24T00:09:35.261Z,13.03
2022-12-24T00:12:08.597Z,13.03
2022-12-24T00:14:38.619Z,15.03
2022-12-24T00:17:08.733Z,14.37
2022-12-24T00:19:38.785Z,12.43
2022-12-24T00:22:08.759Z,13.23
2022-12-24T00:24:38.720Z,15.63
2022-12-24T00:27:11.667Z,14.07
2022-12-24T00:29:41.712Z,13.40
2022-12-24T00:32:11.727Z,12.80
2022-12-24T00:34:42.127Z,12.80
2022-12-24T00:37:12.111Z,12.83
2022-12-24T00:39:42.097Z,13.27
2022-12-24T00:42:14.691Z,14.70
2022-12-24T00:44:44.665Z,13.80
2022-12-24T00:47:14.746Z,13.57
2022-12-24T00:49:44.891Z,12.97
2022-12-24T00:52:14.835Z,14.57
2022-12-24T00:54:44.755Z,14.97
2022-12-24T00:57:17.337Z,13.07
2022-12-24T00:59:47.324Z,17.43
2022-12-24T01:02:17.525Z,14.33
2022-12-24T01:05:00.163Z,14.33
2022-12-24T01:07:30.356Z,13.60
2022-12-24T01:10:00.367Z,14.07
2022-12-24T01:12:33.186Z,14.13
2022-12-24T01:15:06.774Z,14.20
2022-12-24T01:17:37.935Z,14.17
2022-12-24T01:20:10.449Z,13.70
2022-12-24T01:22:40.434Z,13.40
2022-12-24T01:25:11.382Z,15.17
2022-12-24T01:27:44.088Z,15.73
2022-12-24T01:30:17.087Z,13.13
2022-12-24T01:32:47.118Z,13.80
2022-12-24T01:35:17.111Z,13.87
2022-12-24T01:37:47.882Z,14.03
2022-12-24T01:40:31.989Z,13.30
2022-12-24T01:43:17.031Z,14.90
2022-12-24T01:45:50.275Z,12.87
2022-12-24T01:48:28.969Z,13.00
2022-12-24T01:51:04.333Z,12.27
2022-12-24T01:53:37.607Z,12.40
2022-12-24T01:56:09.219Z,13.07
2022-12-24T01:58:45.877Z,12.23
2022-12-24T02:01:15.995Z,12.20
2022-12-24T02:03:46.422Z,11.63
2022-12-24T02:06:18.494Z,12.70
2022-12-24T02:08:48.545Z,11.77
2022-12-24T02:11:21.276Z,12.23
2022-12-24T02:14:01.404Z,14.30
2022-12-24T02:16:45.234Z,13.00
2022-12-24T02:19:50.603Z,12.33
2022-12-24T02:22:28.290Z,12.67
2022-12-24T02:25:28.226Z,13.13
2022-12-24T02:28:03.166Z,13.63
2022-12-24T02:30:41.828Z,12.83
2022-12-24T02:33:27.112Z,16.60
2022-12-24T02:36:04.467Z,12.13
2022-12-24T02:38:40.074Z,13.47
2022-12-24T02:41:14.431Z,13.43
2022-12-24T02:43:48.971Z,13.40
2022-12-24T02:46:26.505Z,14.33
2022-12-24T02:48:58.284Z,17.43
2022-12-24T02:51:28.270Z,12.47
2022-12-24T02:53:59.604Z,21.97
2022-12-24T02:56:54.748Z,17.10
2022-12-24T03:00:01.980Z,14.83
2022-12-24T03:02:48.594Z,14.80
2022-12-24T03:05:28.200Z,17.17
2022-12-24T03:08:05.605Z,16.23
2022-12-24T03:10:44.968Z,16.17
2022-12-24T03:13:18.611Z,16.20
2022-12-24T03:15:49.872Z,13.67
2022-12-24T03:18:25.711Z,14.17
2022-12-24T03:21:01.044Z,14.67
2022-12-24T03:23:31.225Z,16.70
2022-12-24T03:26:04.659Z,14.30
2022-12-24T03:28:35.251Z,15.03
2022-12-24T03:31:07.616Z,14.97
2022-12-24T03:33:40.852Z,18.93
2022-12-24T03:36:12.822Z,14.20
2022-12-24T03:38:42.827Z,14.13
2022-12-24T03:41:13.750Z,15.03
2022-12-24T03:43:43.664Z,14.90
2022-12-24T03:46:13.903Z,15.17
2022-12-24T03:48:46.520Z,14.20
2022-12-24T03:51:27.249Z,16.70
2022-12-24T03:53:58.236Z,13.63
2022-12-24T03:56:28.846Z,12.47
2022-12-24T03:58:58.947Z,15.77
2022-12-24T04:01:29.069Z,12.23
2022-12-24T04:04:01.805Z,12.60
2022-12-24T04:06:31.767Z,14.47
2022-12-24T04:09:05.092Z,14.47
2022-12-24T04:11:35.557Z,15.10
2022-12-24T04:14:05.541Z,14.53
2022-12-24T04:16:35.622Z,12.00
2022-12-24T04:19:08.203Z,18.23
2022-12-24T04:21:38.227Z,24.70
2022-12-24T04:24:09.029Z,16.07
2022-12-24T04:26:39.007Z,14.03
2022-12-24T04:29:09.140Z,14.50
2022-12-24T04:31:39.209Z,12.97
2022-12-24T04:34:11.819Z,13.53
2022-12-24T04:36:41.819Z,13.33
2022-12-24T04:39:11.807Z,12.83
2022-12-24T04:42:04.762Z,12.77
2022-12-24T04:44:34.677Z,13.53
2022-12-24T04:47:04.622Z,12.23
2022-12-24T04:49:37.353Z,12.87
2022-12-24T04:52:07.602Z,13.83
2022-12-24T04:54:37.555Z,13.10
2022-12-24T04:57:07.587Z,13.20
2022-12-24T04:59:37.558Z,14.20
2022-12-24T05:02:07.643Z,12.43
2022-12-24T05:04:40.503Z,13.63
2022-12-24T05:07:10.485Z,14.43
2022-12-24T05:09:40.440Z,12.93
2022-12-24T05:12:10.958Z,14.10
2022-12-24T05:14:44.357Z,13.03
2022-12-24T05:17:14.500Z,14.50
2022-12-24T05:19:47.022Z,14.77
2022-12-24T05:22:29.377Z,12.57
2022-12-24T05:25:11.713Z,13.50
2022-12-24T05:27:46.016Z,14.77
2022-12-24T05:30:19.237Z,14.53
2022-12-24T05:32:49.259Z,15.17
2022-12-24T05:35:21.941Z,15.73
2022-12-24T05:37:51.953Z,14.47
2022-12-24T05:40:22.019Z,16.27
2022-12-24T05:42:53.470Z,14.03
2022-12-24T05:45:23.471Z,14.33
2022-12-24T05:47:53.387Z,16.20
2022-12-24T05:50:26.017Z,19.57
2022-12-24T05:53:08.316Z,13.93
2022-12-24T05:55:38.233Z,14.43
2022-12-24T05:58:08.163Z,16.73
2022-12-24T06:00:38.187Z,17.47
2022-12-24T06:03:08.254Z,15.13
2022-12-24T06:05:46.767Z,16.57
2022-12-24T06:08:17.027Z,29.77
2022-12-24T06:10:46.963Z,18.33
2022-12-24T06:13:16.903Z,15.57
2022-12-24T06:15:46.859Z,16.97
2022-12-24T06:18:16.846Z,15.17
2022-12-24T06:20:52.599Z,18.97
2022-12-24T06:23:23.129Z,18.03
2022-12-24T06:25:54.252Z,16.50
2022-12-24T06:28:24.114Z,17.33
2022-12-24T06:31:04.086Z,17.50
2022-12-24T06:33:34.228Z,13.33
2022-12-24T06:36:16.634Z,14.10
2022-12-24T06:38:47.575Z,17.13
2022-12-24T06:41:18.575Z,13.43
2022-12-24T06:43:49.176Z,17.47
2022-12-24T06:46:20.819Z,18.20
2022-12-24T06:48:51.324Z,17.80
2022-12-24T06:51:23.868Z,14.53
2022-12-24T06:53:59.840Z,16.00
2022-12-24T06:56:30.004Z,15.17
2022-12-24T06:59:05.032Z,17.77
2022-12-24T07:01:35.659Z,13.63
2022-12-24T07:04:05.736Z,15.63
2022-12-24T07:06:38.539Z,16.50
2022-12-24T07:09:08.557Z,17.50
2022-12-24T07:11:38.519Z,16.40
2022-12-24T07:14:08.470Z,17.43
2022-12-24T07:16:38.482Z,17.23
2022-12-24T07:19:08.480Z,19.30
2022-12-24T07:21:41.020Z,23.13
2022-12-24T07:24:11.048Z,74.23
2022-12-24T07:26:41.001Z,25.43
2022-12-24T07:29:11.142Z,18.23
2022-12-24T07:31:41.160Z,20.00
2022-12-24T07:34:11.242Z,19.47
2022-12-24T07:36:43.785Z,18.93
2022-12-24T07:39:13.727Z,21.63
2022-12-24T07:41:43.681Z,24.43
2022-12-24T07:44:18.312Z,20.67
2022-12-24T07:46:48.617Z,22.80
2022-12-24T07:49:18.809Z,17.73
2022-12-24T07:51:51.339Z,19.37
2022-12-24T07:54:21.851Z,22.63
2022-12-24T07:56:51.872Z,23.80
2022-12-24T07:59:21.891Z,28.00
2022-12-24T08:01:52.145Z,63.83
2022-12-24T08:04:22.285Z,38.13
2022-12-24T08:06:54.911Z,22.57
2022-12-24T08:09:25.453Z,21.50
2022-12-24T08:11:55.436Z,19.27
2022-12-24T08:14:28.102Z,24.90
2022-12-24T08:16:58.281Z,22.50
2022-12-24T08:19:28.524Z,18.80
2022-12-24T08:22:01.116Z,20.57
2022-12-24T08:24:31.093Z,23.67
2022-12-24T08:27:01.060Z,23.17
2022-12-24T08:29:31.299Z,20.97
2022-12-24T08:32:01.451Z,25.40
2022-12-24T08:34:31.765Z,22.57
2022-12-24T08:37:04.477Z,20.40
2022-12-24T08:39:34.421Z,20.40
2022-12-24T08:42:04.462Z,23.53
2022-12-24T08:44:34.541Z,25.60
2022-12-24T08:47:04.481Z,21.87
2022-12-24T08:49:34.472Z,24.97
2022-12-24T08:52:07.285Z,24.67
2022-12-24T08:54:39.821Z,26.33
2022-12-24T08:57:14.993Z,25.30
2022-12-24T08:59:45.052Z,23.93
2022-12-24T09:02:15.404Z,22.37
2022-12-24T09:04:48.293Z,24.50
2022-12-24T09:07:21.017Z,32.03
2022-12-24T09:09:50.961Z,22.30
2022-12-24T09:12:20.889Z,23.60
2022-12-24T09:14:50.869Z,24.53
2022-12-24T09:17:21.039Z,25.60
2022-12-24T09:19:51.222Z,24.47
2022-12-24T09:22:25.739Z,24.83
2022-12-24T09:24:56.877Z,24.10
2022-12-24T09:27:26.873Z,23.73
2022-12-24T09:29:56.776Z,24.97
2022-12-24T09:32:27.538Z,22.60
2022-12-24T09:34:57.655Z,25.83
2022-12-24T09:37:30.459Z,23.13
2022-12-24T09:40:04.210Z,23.53
2022-12-24T09:42:44.965Z,20.13
2022-12-24T09:45:21.660Z,23.60
2022-12-24T09:47:55.251Z,17.87
2022-12-24T09:50:35.758Z,32.57
2022-12-24T09:53:18.927Z,25.47
2022-12-24T09:55:53.272Z,26.00
2022-12-24T09:58:28.980Z,26.57
2022-12-24T10:01:13.478Z,23.03
2022-12-24T10:03:43.715Z,24.50
2022-12-24T10:06:18.591Z,20.60
2022-12-24T10:09:05.785Z,22.80
2022-12-24T10:11:46.033Z,23.47
2022-12-24T10:14:28.764Z,23.73
2022-12-24T10:17:09.651Z,20.63
2022-12-24T10:19:48.329Z,24.10
2022-12-24T10:22:27.009Z,25.67
2022-12-24T10:25:06.543Z,43.53
2022-12-24T10:27:41.030Z,37.83
2022-12-24T10:30:19.732Z,25.87
2022-12-24T10:32:52.130Z,25.40
2022-12-24T10:35:28.834Z,26.03
2022-12-24T10:37:59.288Z,22.33
2022-12-24T10:40:38.299Z,41.57
2022-12-24T10:43:16.720Z,34.80
2022-12-24T10:45:50.566Z,27.07
2022-12-24T10:48:28.495Z,29.63
2022-12-24T10:51:05.870Z,28.50
2022-12-24T10:53:47.319Z,31.27
2022-12-24T10:56:23.372Z,27.33
2022-12-24T10:58:56.319Z,24.03
2022-12-24T11:01:47.739Z,27.63
2022-12-24T11:04:20.422Z,30.53
2022-12-24T11:06:58.688Z,26.63
2022-12-24T11:09:31.212Z,24.23
2022-12-24T11:12:09.863Z,26.83
2022-12-24T11:14:41.926Z,29.00
2022-12-24T11:17:23.680Z,49.63
2022-12-24T11:19:54.319Z,31.53
2022-12-24T11:22:27.216Z,30.90
2022-12-24T11:25:11.374Z,29.13
2022-12-24T11:27:49.775Z,25.87
2022-12-24T11:31:00.075Z,28.67
2022-12-24T11:33:31.069Z,33.77
2022-12-24T11:36:06.103Z,31.33
2022-12-24T11:39:00.872Z,29.10
2022-12-24T11:41:40.082Z,167.60
2022-12-24T11:44:16.407Z,47.57
2022-12-24T11:47:03.810Z,35.40
2022-12-24T11:49:34.817Z,28.33
2022-12-24T11:52:24.123Z,29.30
2022-12-24T11:55:22.589Z,32.20
2022-12-24T11:58:01.198Z,34.07
2022-12-24T12:00:34.044Z,35.73
2022-12-24T12:03:05.864Z,33.23
2022-12-24T12:05:37.499Z,34.37
2022-12-24T12:08:18.187Z,31.97
2022-12-24T12:10:50.953Z,23.93
2022-12-24T12:13:25.598Z,25.07
2022-12-24T12:16:09.351Z,25.13
2022-12-24T12:18:42.264Z,28.27
2022-12-24T12:21:17.820Z,25.30
2022-12-24T12:23:52.430Z,18.43
2022-12-24T12:26:26.913Z,18.00
2022-12-24T12:29:03.558Z,20.47
2022-12-24T12:31:41.289Z,19.40
2022-12-24T12:34:18.510Z,18.20
2022-12-24T12:36:52.043Z,20.10
2022-12-24T12:39:22.517Z,18.43
2022-12-24T12:42:02.505Z,15.77
2022-12-24T12:44:59.891Z,17.87
2022-12-24T12:47:54.047Z,15.70
2022-12-24T12:50:31.793Z,18.47
2022-12-24T12:53:40.762Z,18.17
2022-12-24T12:56:24.735Z,17.03
2022-12-24T12:58:58.737Z,17.93
2022-12-24T13:01:36.282Z,18.30
2022-12-24T13:04:38.660Z,18.13
2022-12-24T13:07:37.517Z,19.97
2022-12-24T13:10:38.782Z,20.63
2022-12-24T13:13:54.824Z,54.80
2022-12-24T13:16:42.691Z,26.50
2022-12-24T13:19:38.051Z,18.13
2022-12-24T13:22:21.512Z,17.17
2022-12-24T13:24:54.225Z,29.10
2022-12-24T13:27:27.945Z,39.60
2022-12-24T13:30:06.931Z,41.33
2022-12-24T13:32:52.455Z,26.53
2022-12-24T13:35:59.174Z,23.17
2022-12-24T13:38:44.129Z,23.23
2022-12-24T13:41:42.888Z,23.97
2022-12-24T13:44:21.314Z,22.60
2022-12-24T13:47:32.266Z,23.27
2022-12-24T13:50:23.955Z,21.33
2022-12-24T13:52:55.900Z,22.63
2022-12-24T13:55:29.110Z,25.80
2022-12-24T13:58:01.419Z,23.77
2022-12-24T14:00:36.240Z,24.60
2022-12-24T14:03:16.958Z,26.27
2022-12-24T14:05:52.618Z,22.10
2022-12-24T14:08:33.386Z,26.13
2022-12-24T14:11:12.254Z,29.87
2022-12-24T14:14:13.760Z,24.73
2022-12-24T14:16:54.345Z,22.57
2022-12-24T14:19:27.487Z,31.73
2022-12-24T14:22:05.058Z,28.17
2022-12-24T14:24:38.582Z,27.20
2022-12-24T14:27:21.221Z,33.47
2022-12-24T14:30:01.651Z,26.67
2022-12-24T14:32:37.865Z,29.83
2022-12-24T14:35:17.183Z,36.43
2022-12-24T14:37:51.946Z,31.03
2022-12-24T14:40:28.509Z,28.50
2022-12-24T14:43:08.877Z,26.67
2022-12-24T14:45:47.952Z,37.03
2022-12-24T14:48:25.026Z,33.07
2022-12-24T14:51:05.838Z,31.77
2022-12-24T14:53:54.673Z,29.73
2022-12-24T14:56:25.649Z,30.63
2022-12-24T14:59:04.537Z,33.57
2022-12-24T15:01:36.181Z,27.00
2022-12-24T15:04:08.663Z,32.70
2022-12-24T15:06:41.231Z,27.23
2022-12-24T15:09:19.580Z,30.63
2022-12-24T15:11:52.504Z,34.40
2022-12-24T15:14:28.018Z,28.90
2022-12-24T15:17:00.384Z,31.80
2022-12-24T15:19:34.987Z,32.37
2022-12-24T15:22:05.936Z,34.07
2022-12-24T15:24:38.058Z,39.47
2022-12-24T15:27:18.520Z,36.60
2022-12-24T15:29:54.128Z,34.23
2022-12-24T15:32:31.706Z,38.20
2022-12-24T15:35:01.667Z,39.10
2022-12-24T15:37:33.973Z,34.30
2022-12-24T15:40:10.565Z,26.63
2022-12-24T15:42:45.298Z,23.87
2022-12-24T15:45:27.239Z,33.50
2022-12-24T15:48:00.727Z,27.73
2022-12-24T15:50:34.229Z,43.20
2022-12-24T15:53:18.539Z,37.23
2022-12-24T15:56:05.558Z,37.93
2022-12-24T15:58:37.757Z,40.37
2022-12-24T16:01:32.852Z,28.67
2022-12-24T16:04:03.187Z,40.50
2022-12-24T16:07:01.939Z,42.17
2022-12-24T16:09:47.927Z,41.13
2022-12-24T16:12:20.552Z,51.00
2022-12-24T16:14:54.101Z,35.87
2022-12-24T16:17:29.553Z,36.37
2022-12-24T16:20:03.784Z,41.60
2022-12-24T16:22:35.408Z,47.50
2022-12-24T16:25:25.484Z,48.23
2022-12-24T16:28:00.148Z,40.47
2022-12-24T16:30:30.716Z,34.57
2022-12-24T16:33:08.592Z,36.30
2022-12-24T16:35:38.672Z,37.10
2022-12-24T16:38:08.606Z,39.40
2022-12-24T16:40:38.615Z,24.17
2022-12-24T16:43:20.999Z,27.57
2022-12-24T16:45:51.666Z,55.17
2022-12-24T16:48:26.674Z,58.83
2022-12-24T16:50:57.136Z,53.73
2022-12-24T16:53:27.120Z,45.03
2022-12-24T16:55:57.513Z,37.87
2022-12-24T16:58:47.818Z,42.10
2022-12-24T17:01:17.817Z,40.60
2022-12-24T17:03:53.288Z,52.87
2022-12-24T17:06:23.375Z,41.17
2022-12-24T17:08:55.538Z,36.13
2022-12-24T17:11:26.398Z,46.33
2022-12-24T17:13:56.385Z,34.53
2022-12-24T17:16:26.413Z,48.30
2022-12-24T17:19:07.843Z,38.80
2022-12-24T17:21:38.375Z,46.63
2022-12-24T17:24:09.283Z,38.03
2022-12-24T17:27:05.524Z,41.40
2022-12-24T17:29:35.756Z,37.97
2022-12-24T17:32:05.835Z,42.47
2022-12-24T17:34:39.131Z,46.27
2022-12-24T17:37:09.090Z,43.90
2022-12-24T17:39:39.292Z,45.67
2022-12-24T17:42:09.184Z,57.70
2022-12-24T17:44:39.185Z,64.40
2022-12-24T17:47:09.188Z,41.07
2022-12-24T17:49:41.852Z,46.30
2022-12-24T17:52:12.221Z,50.40
2022-12-24T17:54:42.300Z,41.17
2022-12-24T17:57:12.277Z,42.00
2022-12-24T17:59:42.307Z,53.80
2022-12-24T18:02:14.739Z,52.40
2022-12-24T18:04:49.854Z,40.83
2022-12-24T18:07:19.885Z,53.60
2022-12-24T18:09:51.486Z,44.67
2022-12-24T18:12:21.464Z,47.20
2022-12-24T18:14:51.432Z,42.63
2022-12-24T18:17:21.371Z,37.70
2022-12-24T18:19:54.257Z,40.60
2022-12-24T18:22:24.829Z,40.60
2022-12-24T18:24:54.869Z,36.90
2022-12-24T18:27:24.930Z,41.33
2022-12-24T18:29:54.912Z,36.03
2022-12-24T18:32:25.005Z,49.30
2022-12-24T18:34:57.598Z,39.03
2022-12-24T18:37:27.631Z,54.87
2022-12-24T18:39:57.850Z,60.57
2022-12-24T18:42:28.098Z,44.43
2022-12-24T18:44:58.252Z,45.37
2022-12-24T18:47:28.270Z,35.63
2022-12-24T18:50:27.045Z,46.83
2022-12-24T18:52:57.002Z,35.50
2022-12-24T18:55:26.998Z,40.60
2022-12-24T18:57:57.032Z,44.43
2022-12-24T19:00:27.045Z,37.60
2022-12-24T19:02:57.053Z,38.53
2022-12-24T19:05:29.660Z,43.20
2022-12-24T19:08:02.036Z,36.03
2022-12-24T19:10:41.213Z,45.20
2022-12-24T19:13:11.193Z,33.23
2022-12-24T19:15:43.293Z,33.30
2022-12-24T19:18:13.782Z,41.83
2022-12-24T19:20:46.550Z,38.97
2022-12-24T19:23:16.555Z,38.83
2022-12-24T19:25:46.700Z,33.07
2022-12-24T19:28:19.178Z,36.13
2022-12-24T19:30:52.664Z,36.07
2022-12-24T19:33:22.591Z,40.33
2022-12-24T19:36:07.203Z,38.63
2022-12-24T19:38:37.807Z,35.20
2022-12-24T19:41:12.595Z,35.03
2022-12-24T19:43:44.243Z,29.50
2022-12-24T19:46:16.847Z,33.40
2022-12-24T19:48:51.585Z,27.90
2022-12-24T19:51:25.259Z,28.63
2022-12-24T19:53:56.654Z,29.37
2022-12-24T19:56:28.047Z,29.73
2022-12-24T19:58:59.683Z,28.47
2022-12-24T20:01:31.482Z,24.70
2022-12-24T20:04:01.557Z,34.63
2022-12-24T20:06:35.941Z,28.30
2022-12-24T20:09:08.572Z,29.80
2022-12-24T20:11:38.581Z,28.90
2022-12-24T20:14:09.112Z,33.57
2022-12-24T20:16:39.091Z,33.17
2022-12-24T20:19:19.915Z,28.80
2022-12-24T20:21:52.535Z,28.17
2022-12-24T20:24:28.037Z,29.43
2022-12-24T20:26:58.047Z,28.20
2022-12-24T20:29:27.970Z,34.20
2022-12-24T20:31:57.993Z,30.23
2022-12-24T20:34:28.126Z,32.17
2022-12-24T20:37:00.780Z,28.93
2022-12-24T20:39:30.969Z,28.73
2022-12-24T20:42:01.728Z,27.07
2022-12-24T20:44:31.734Z,22.30
2022-12-24T20:47:01.729Z,27.27
2022-12-24T20:49:31.750Z,23.43
2022-12-24T20:52:04.407Z,25.67
2022-12-24T20:54:34.538Z,33.23
2022-12-24T20:57:04.514Z,27.80
2022-12-24T20:59:34.524Z,29.63
2022-12-24T21:02:04.746Z,31.43
2022-12-24T21:04:35.968Z,24.80
2022-12-24T21:07:08.519Z,24.50
2022-12-24T21:09:38.469Z,26.23
2022-12-24T21:12:21.525Z,26.87
2022-12-24T21:14:51.488Z,27.10
2022-12-24T21:17:21.634Z,19.10
2022-12-24T21:19:51.821Z,25.80
2022-12-24T21:22:24.474Z,24.83
2022-12-24T21:24:54.451Z,23.33
2022-12-24T21:27:24.528Z,20.73
2022-12-24T21:29:54.512Z,27.10
2022-12-24T21:32:24.523Z,26.67
2022-12-24T21:34:54.529Z,25.17
2022-12-24T21:37:27.082Z,24.10
2022-12-24T21:39:57.181Z,19.83
2022-12-24T21:42:27.655Z,28.00
2022-12-24T21:44:57.654Z,20.53
2022-12-24T21:47:27.673Z,21.77
2022-12-24T21:50:10.110Z,25.40
2022-12-24T21:52:46.151Z,26.93
2022-12-24T21:55:13.544Z,22.43
2022-12-24T21:58:02.073Z,20.87
2022-12-24T22:00:32.013Z,19.87
2022-12-24T22:03:02.146Z,20.80
2022-12-24T22:05:36.034Z,22.43
2022-12-24T22:08:21.061Z,24.03
2022-12-24T22:11:03.459Z,19.23
2022-12-24T22:13:34.216Z,26.60
2022-12-24T22:16:04.247Z,22.00
2022-12-24T22:18:34.199Z,18.73
2022-12-24T22:21:05.362Z,21.97
2022-12-24T22:23:42.305Z,21.50
2022-12-24T22:26:14.432Z,23.13
2022-12-24T22:28:44.377Z,24.97
2022-12-24T22:31:19.792Z,19.57
2022-12-24T22:33:49.982Z,21.43
2022-12-24T22:36:20.199Z,17.83
2022-12-24T22:38:52.720Z,22.37
2022-12-24T22:41:22.720Z,19.53
2022-12-24T22:43:53.150Z,19.50
2022-12-24T22:46:23.193Z,23.00
2022-12-24T22:48:53.395Z,23.03
2022-12-24T22:51:24.361Z,18.37
2022-12-24T22:53:57.583Z,26.23
2022-12-24T22:56:27.530Z,21.10
2022-12-24T22:58:58.330Z,21.53
2022-12-24T23:01:36.633Z,21.13
2022-12-24T23:04:07.211Z,24.47
2022-12-24T23:06:37.855Z,26.83
2022-12-24T23:09:13.602Z,28.07
2022-12-24T23:11:43.758Z,20.70
2022-12-24T23:14:31.587Z,23.40
2022-12-24T23:17:01.558Z,28.00
2022-12-24T23:19:31.963Z,27.13
2022-12-24T23:22:01.934Z,27.80
2022-12-24T23:24:35.327Z,23.77
2022-12-24T23:27:05.371Z,23.03
2022-12-24T23:29:44.219Z,21.60
2022-12-24T23:32:14.184Z,27.73
2022-12-24T23:34:44.184Z,26.50
2022-12-24T23:37:16.952Z,21.17
2022-12-24T23:39:49.557Z,24.90
2022-12-24T23:42:19.570Z,24.97
2022-12-24T23:44:51.382Z,17.47
2022-12-24T23:47:21.643Z,21.03
2022-12-24T23:49:51.839Z,27.80
2022-12-24T23:52:22.044Z,29.13
2022-12-24T23:54:54.669Z,26.90
2022-12-24T23:57:24.715Z,34.47
2022-12-24T23:59:54.737Z,38.30
